Nearby METAR Reports

 

KLWM - Lawrence,MA, USA
Distance from station: NE 12mi, 19km
Updated: Fri, 28-Apr-2017 12:54pm EDT
Clear
Clear
 Wind from SSW
Wind: SSW 7 mph , 11 km/h
Temperature: 75°F , 24°C
Dew Point: 61°F , 16°C
Humidity: 61%
Barometer: 29.95 inHg , 1014.2 hPa
Clouds: Clear
Visibility: 10 miles , 16 km
2017/04/28 16:54 KLWM 281654Z 21006KT 10SM CLR 24/16 A2995 RMK AO2 SLP141 T02390161
KBED - Bedford,MA, USA
Distance from station: SSE 12mi, 19km
Updated: Fri, 28-Apr-2017 12:56pm EDT
Clear
Clear
 Wind from varies
Wind: varies 5 mph , 7 km/h
Temperature: 72°F , 22°C
Dew Point: 59°F , 15°C
Humidity: 65%
Barometer: 29.93 inHg , 1013.5 hPa
Clouds: Clear
Visibility: 10 miles , 16 km
2017/04/28 16:56 KBED 281656Z VRB04KT 10SM CLR 22/15 A2993 RMK AO2 SLP147 T02220150

Metar display script from Saratoga-Weather.org